Time;durP1;ratioP1;P1;durP2;ratioP2;P2;SDS_P1;SDS_P2;PMS_P1;PMS_P2;Temp;Humidity;BMP_temperature;BMP_pressure;BME280_temperature;BME280_humidity;BME280_pressure;Samples;Min_cycle;Max_cycle;Signal;HPM_P1;HPM_P2
2023/12/14 00:00:54;;;;;;;1.05;0.95;;;;;;;4.09;100.00;91931.19;2104314;28;20135;-78
2023/12/14 00:01:55;;;;;;;0.82;0.80;;;;;;;4.17;100.00;91923.84;2094891;28;20047;-78
2023/12/14 00:02:56;;;;;;;1.10;1.00;;;;;;;4.01;100.00;91927.16;2096000;28;20040;-77
2023/12/14 00:03:57;;;;;;;2.22;1.08;;;;;;;4.04;100.00;91929.00;2102488;28;20027;-78
2023/12/14 00:04:58;;;;;;;1.05;0.70;;;;;;;4.03;100.00;91935.41;2113355;28;20043;-77
2023/12/14 00:05:59;;;;;;;0.50;0.50;;;;;;;4.00;100.00;91926.41;2094907;28;20031;-79
2023/12/14 00:07:00;;;;;;;0.75;0.75;;;;;;;4.16;100.00;91930.31;2078754;28;20017;-80
2023/12/14 00:08:01;;;;;;;0.65;0.65;;;;;;;4.12;100.00;91935.66;2081312;28;20033;-78
2023/12/14 00:09:02;;;;;;;0.40;0.40;;;;;;;4.13;100.00;91926.59;2087314;28;20423;-78
2023/12/14 00:10:05;;;;;;;0.50;0.40;;;;;;;4.19;100.00;91932.16;2095187;28;20025;-78
2023/12/14 00:11:07;;;;;;;0.57;0.57;;;;;;;4.04;100.00;91940.31;2114999;28;20015;-78
2023/12/14 00:12:09;;;;;;;0.68;0.50;;;;;;;4.02;100.00;91934.69;2097499;28;20067;-77
2023/12/14 00:13:10;;;;;;;0.40;0.40;;;;;;;4.04;100.00;91931.66;2080389;28;20087;-79
2023/12/14 00:14:11;;;;;;;0.40;0.40;;;;;;;3.90;100.00;91939.78;2096025;28;20021;-78
2023/12/14 00:15:12;;;;;;;0.77;0.73;;;;;;;3.79;100.00;91938.06;2115029;28;20107;-77
2023/12/14 00:16:13;;;;;;;0.40;0.40;;;;;;;3.71;100.00;91928.00;2112146;28;20431;-79
2023/12/14 00:17:14;;;;;;;1.25;0.40;;;;;;;3.71;100.00;91943.84;2114136;28;20408;-79
2023/12/14 00:18:15;;;;;;;0.40;0.40;;;;;;;3.73;100.00;91941.56;2111832;28;20019;-78
2023/12/14 00:19:16;;;;;;;0.52;0.50;;;;;;;3.78;100.00;91943.75;2103873;28;20028;-77
2023/12/14 00:20:17;;;;;;;0.43;0.40;;;;;;;3.77;100.00;91942.25;2095405;28;20025;-78
2023/12/14 00:21:18;;;;;;;0.50;0.30;;;;;;;3.76;100.00;91946.03;2102692;28;20016;-80
2023/12/14 00:22:19;;;;;;;0.40;0.40;;;;;;;3.50;100.00;91940.38;2112247;28;20020;-78
2023/12/14 00:23:29;;;;;;;0.57;0.50;;;;;;;3.68;100.00;91952.59;2102427;28;20432;-78
2023/12/14 00:24:30;;;;;;;0.40;0.40;;;;;;;3.54;100.00;91948.25;2094346;28;20115;-77
2023/12/14 00:25:30;;;;;;;0.32;0.30;;;;;;;3.61;100.00;91958.00;2096572;28;20054;-78
2023/12/14 00:26:32;;;;;;;0.50;0.40;;;;;;;3.42;100.00;91954.09;2096334;28;20538;-78
2023/12/14 00:27:32;;;;;;;0.45;0.45;;;;;;;3.40;100.00;91956.38;2095789;28;20044;-79
2023/12/14 00:28:33;;;;;;;0.30;0.30;;;;;;;3.41;100.00;91955.22;2094591;28;20144;-80
2023/12/14 00:29:34;;;;;;;0.70;0.50;;;;;;;3.34;100.00;91958.72;2087360;28;20039;-80
2023/12/14 00:30:35;;;;;;;1.10;0.60;;;;;;;3.41;100.00;91961.25;2086678;28;20115;-77
2023/12/14 00:31:36;;;;;;;1.75;0.90;;;;;;;3.37;100.00;91957.91;2093287;28;20025;-77
2023/12/14 00:32:37;;;;;;;3.60;2.03;;;;;;;3.39;100.00;91960.91;2104698;28;20028;-80
2023/12/14 00:33:38;;;;;;;2.50;1.80;;;;;;;3.40;100.00;91954.50;2084387;28;20036;-80
2023/12/14 00:34:40;;;;;;;2.53;1.50;;;;;;;3.41;100.00;91957.88;2087389;28;20017;-78
2023/12/14 00:35:41;;;;;;;2.70;1.85;;;;;;;3.25;100.00;91959.22;2104307;28;20612;-79
2023/12/14 00:36:42;;;;;;;2.00;1.75;;;;;;;3.33;100.00;91959.13;2095785;28;20028;-80
2023/12/14 00:37:43;;;;;;;2.08;1.80;;;;;;;3.30;100.00;91958.03;2095368;28;20024;-76
2023/12/14 00:38:45;;;;;;;1.40;1.05;;;;;;;3.35;100.00;91964.75;2097104;28;20617;-78
2023/12/14 00:39:46;;;;;;;1.08;0.88;;;;;;;3.22;100.00;91967.94;2104666;28;20019;-78
2023/12/14 00:40:46;;;;;;;0.90;0.70;;;;;;;3.27;100.00;91966.75;2106265;28;20055;-76
2023/12/14 00:41:47;;;;;;;1.73;1.08;;;;;;;3.24;100.00;91970.91;2096941;28;20016;-77
2023/12/14 00:42:48;;;;;;;1.13;1.00;;;;;;;3.13;100.00;91974.84;2095309;28;20012;-77
2023/12/14 00:43:49;;;;;;;1.23;0.90;;;;;;;3.08;100.00;91973.41;2106556;28;20034;-78
2023/12/14 00:44:50;;;;;;;0.68;0.68;;;;;;;3.12;100.00;91968.06;2105866;28;20016;-77
2023/12/14 00:45:52;;;;;;;0.82;0.73;;;;;;;3.12;100.00;91970.72;2097270;28;20031;-77
2023/12/14 00:46:53;;;;;;;0.50;0.50;;;;;;;3.01;100.00;91970.84;2095249;28;20108;-78
2023/12/14 00:47:54;;;;;;;0.60;0.60;;;;;;;3.01;100.00;91973.47;2102216;28;20021;-78
2023/12/14 00:48:55;;;;;;;0.50;0.50;;;;;;;2.97;100.00;91972.78;2086912;28;20430;-81
2023/12/14 00:49:56;;;;;;;2.63;0.55;;;;;;;3.02;100.00;91980.25;2088414;28;20084;-76
2023/12/14 00:50:57;;;;;;;1.17;1.08;;;;;;;3.13;100.00;91980.88;2104698;28;20078;-78
2023/12/14 00:51:58;;;;;;;3.25;0.40;;;;;;;3.06;100.00;91975.66;2087236;28;20028;-79
2023/12/14 00:52:59;;;;;;;0.57;0.40;;;;;;;3.04;100.00;91977.97;2072275;28;20348;-77
2023/12/14 00:54:00;;;;;;;0.43;0.30;;;;;;;3.08;100.00;91986.59;2077449;28;20040;-77
2023/12/14 00:55:01;;;;;;;8.98;0.70;;;;;;;2.92;100.00;91987.16;2097099;28;20040;-79
2023/12/14 00:56:03;;;;;;;2.00;0.40;;;;;;;3.01;100.00;91992.69;2103646;28;20377;-82
2023/12/14 00:57:04;;;;;;;1.75;0.50;;;;;;;3.01;100.00;91992.69;2104500;28;20346;-80
2023/12/14 00:58:05;;;;;;;0.45;0.30;;;;;;;3.03;100.00;91995.72;2086481;28;20132;-78
2023/12/14 00:59:06;;;;;;;4.63;0.40;;;;;;;2.94;100.00;91992.78;2077962;28;20126;-79
2023/12/14 01:00:09;;;;;;;0.55;0.52;;;;;;;2.80;100.00;91998.22;2080924;28;20143;-79
2023/12/14 01:01:10;;;;;;;2.28;0.40;;;;;;;2.89;100.00;92006.41;2077283;28;20025;-78
2023/12/14 01:02:11;;;;;;;0.55;0.40;;;;;;;2.84;100.00;92006.84;2097278;28;20095;-81
2023/12/14 01:03:12;;;;;;;0.40;0.30;;;;;;;2.75;100.00;92004.66;2094477;28;20048;-79
2023/12/14 01:04:13;;;;;;;0.30;0.30;;;;;;;2.90;100.00;91996.63;2091945;28;20024;-80
2023/12/14 01:05:14;;;;;;;0.38;0.38;;;;;;;2.94;100.00;92006.00;2094932;28;20504;-77
2023/12/14 01:06:15;;;;;;;0.30;0.30;;;;;;;2.93;100.00;91999.19;2105436;28;20030;-79
2023/12/14 01:07:18;;;;;;;0.30;0.30;;;;;;;2.86;100.00;92012.50;2097052;28;20373;-79
2023/12/14 01:08:18;;;;;;;0.40;0.30;;;;;;;3.02;100.00;92001.34;2080272;28;20040;-77
2023/12/14 01:09:19;;;;;;;1.95;0.30;;;;;;;3.00;100.00;92003.66;2086419;28;20029;-76
2023/12/14 01:10:20;;;;;;;0.30;0.30;;;;;;;3.04;100.00;92009.66;2094870;28;20074;-80
2023/12/14 01:11:24;;;;;;;0.30;0.30;;;;;;;3.09;100.00;92016.38;2094514;28;20650;-76
2023/12/14 01:12:25;;;;;;;1.52;0.38;;;;;;;3.15;100.00;92006.88;2088698;28;20028;-77
2023/12/14 01:13:26;;;;;;;3.60;0.38;;;;;;;3.14;100.00;92010.66;2095428;28;20020;-80
2023/12/14 01:14:27;;;;;;;1.40;0.28;;;;;;;3.12;100.00;92016.34;2096716;28;20452;-77
2023/12/14 01:15:28;;;;;;;1.88;0.30;;;;;;;3.14;100.00;92010.66;2103944;28;20040;-81
2023/12/14 01:16:29;;;;;;;0.35;0.20;;;;;;;3.09;100.00;92013.75;2088657;28;20120;-79
2023/12/14 01:17:30;;;;;;;0.20;0.20;;;;;;;3.18;100.00;92014.00;2089181;28;20122;-78
2023/12/14 01:18:31;;;;;;;1.25;0.20;;;;;;;3.36;100.00;92019.06;2094637;28;20028;-77
2023/12/14 01:19:32;;;;;;;2.15;0.30;;;;;;;3.36;100.00;92019.81;2097029;28;20024;-78
2023/12/14 01:20:33;;;;;;;0.40;0.40;;;;;;;3.31;100.00;92022.16;2103171;28;20043;-80
2023/12/14 01:21:34;;;;;;;0.20;0.20;;;;;;;3.32;100.00;92018.38;2103270;28;20034;-78
2023/12/14 01:22:35;;;;;;;0.30;0.30;;;;;;;3.13;100.00;92028.41;2097682;28;20078;-80
2023/12/14 01:23:38;;;;;;;0.77;0.32;;;;;;;3.14;100.00;92029.13;2097320;28;20465;-79
2023/12/14 01:24:39;;;;;;;0.45;0.30;;;;;;;3.17;100.00;92026.47;2097186;28;20107;-78
2023/12/14 01:25:39;;;;;;;0.30;0.30;;;;;;;3.37;100.00;92023.19;2103966;28;20098;-79
2023/12/14 01:26:40;;;;;;;0.30;0.30;;;;;;;3.29;100.00;92027.81;2104950;28;20076;-79
2023/12/14 01:27:41;;;;;;;0.40;0.30;;;;;;;3.25;100.00;92027.13;2096277;28;20028;-79
2023/12/14 01:28:42;;;;;;;0.30;0.30;;;;;;;3.27;100.00;92027.47;2105109;28;20024;-79
2023/12/14 01:29:43;;;;;;;0.40;0.40;;;;;;;3.36;100.00;92032.28;2097115;28;20047;-77
2023/12/14 01:30:44;;;;;;;0.40;0.40;;;;;;;3.24;100.00;92028.25;2095271;28;20028;-79
2023/12/14 01:31:45;;;;;;;1.08;0.30;;;;;;;3.32;100.00;92024.38;2103097;28;20020;-80
2023/12/14 01:32:46;;;;;;;0.40;0.40;;;;;;;3.26;100.00;92025.97;2101339;28;20415;-79
2023/12/14 01:33:47;;;;;;;0.30;0.30;;;;;;;3.40;100.00;92031.09;2113481;28;20027;-78
2023/12/14 01:34:48;;;;;;;0.47;0.35;;;;;;;3.46;100.00;92034.03;2093972;28;20074;-80
2023/12/14 01:35:49;;;;;;;0.85;0.30;;;;;;;3.35;100.00;92039.44;2093265;28;20025;-79
2023/12/14 01:36:50;;;;;;;0.65;0.30;;;;;;;3.46;100.00;92037.41;2105210;28;20473;-78
2023/12/14 01:37:51;;;;;;;0.20;0.20;;;;;;;3.50;100.00;92037.38;2102872;28;20103;-79
2023/12/14 01:38:52;;;;;;;0.20;0.20;;;;;;;3.58;100.00;92043.31;2111669;28;20016;-79
2023/12/14 01:39:53;;;;;;;0.47;0.30;;;;;;;3.42;100.00;92044.63;2105456;28;20688;-77
2023/12/14 01:40:55;;;;;;;0.20;0.20;;;;;;;3.43;100.00;92038.22;2103068;28;20043;-79
2023/12/14 01:41:56;;;;;;;0.20;0.20;;;;;;;3.49;100.00;92041.91;2103095;28;20486;-78
2023/12/14 01:43:12;;;;;;;0.30;0.20;;;;;;;3.47;100.00;92038.94;2090975;28;20043;-79
2023/12/14 01:44:13;;;;;;;0.20;0.20;;;;;;;3.53;100.00;92039.97;2098203;28;20028;-78
2023/12/14 01:45:16;;;;;;;0.25;0.20;;;;;;;3.50;100.00;92047.94;2103873;28;20051;-78
2023/12/14 01:46:17;;;;;;;0.20;0.20;;;;;;;3.53;100.00;92045.25;2097288;28;20435;-79
2023/12/14 01:47:18;;;;;;;0.73;0.25;;;;;;;3.47;100.00;92040.81;2101905;28;20042;-80
2023/12/14 01:48:19;;;;;;;0.55;0.50;;;;;;;3.57;100.00;92045.22;2103003;28;20150;-78
2023/12/14 01:49:20;;;;;;;1.90;1.17;;;;;;;3.57;100.00;92053.16;2104882;28;20110;-80
2023/12/14 01:50:21;;;;;;;1.98;1.52;;;;;;;3.56;100.00;92050.88;2111727;28;20035;-79
2023/12/14 01:51:22;;;;;;;3.50;0.80;;;;;;;3.50;100.00;92048.69;2105458;28;20734;-80
2023/12/14 01:52:23;;;;;;;0.85;0.40;;;;;;;3.39;100.00;92048.09;2099915;28;20027;-81
2023/12/14 01:53:24;;;;;;;0.20;0.20;;;;;;;3.24;100.00;92052.03;2112077;28;20524;-81
2023/12/14 01:54:25;;;;;;;0.30;0.30;;;;;;;3.39;100.00;92053.38;2103557;28;20024;-79
2023/12/14 01:55:26;;;;;;;0.20;0.20;;;;;;;3.31;100.00;92054.59;2096537;28;20025;-79
2023/12/14 01:56:27;;;;;;;0.38;0.20;;;;;;;3.15;100.00;92057.03;2091347;28;20021;-77
2023/12/14 01:57:29;;;;;;;0.30;0.20;;;;;;;3.18;100.00;92064.91;2092863;28;20078;-77
2023/12/14 01:58:30;;;;;;;0.20;0.20;;;;;;;3.33;100.00;92056.81;2094946;28;20099;-79
2023/12/14 01:59:31;;;;;;;0.30;0.30;;;;;;;3.30;100.00;92058.38;2092793;28;20043;-78
2023/12/14 02:00:44;;;;;;;0.30;0.30;;;;;;;3.26;100.00;92062.97;2093170;28;20033;-78
2023/12/14 02:01:52;;;;;;;0.30;0.30;;;;;;;3.19;100.00;92065.66;2097429;28;20032;-80
2023/12/14 02:02:53;;;;;;;1.25;0.30;;;;;;;3.32;100.00;92071.94;2106468;28;20368;-80
2023/12/14 02:03:54;;;;;;;1.20;0.30;;;;;;;3.35;100.00;92067.75;2109667;28;20023;-78
2023/12/14 02:04:55;;;;;;;0.22;0.22;;;;;;;3.39;100.00;92079.78;2110190;28;20039;-78
2023/12/14 02:05:57;;;;;;;1.02;0.30;;;;;;;3.28;100.00;92087.06;2104193;28;20480;-79
2023/12/14 02:06:58;;;;;;;0.30;0.30;;;;;;;3.26;100.00;92078.78;2097054;28;20020;-79
2023/12/14 02:07:59;;;;;;;0.30;0.20;;;;;;;3.38;100.00;92077.50;2095217;28;20024;-79
2023/12/14 02:09:00;;;;;;;0.40;0.40;;;;;;;3.14;100.00;92080.06;2103891;28;20036;-80
2023/12/14 02:10:01;;;;;;;0.45;0.45;;;;;;;3.02;100.00;92086.56;2113115;28;20098;-80
2023/12/14 02:11:03;;;;;;;0.30;0.30;;;;;;;3.17;100.00;92094.38;2109571;28;20023;-77
2023/12/14 02:12:04;;;;;;;0.68;0.40;;;;;;;3.21;100.00;92092.44;2105065;28;20020;-79
2023/12/14 02:13:05;;;;;;;0.30;0.30;;;;;;;3.19;100.00;92094.72;2102963;28;20030;-79
2023/12/14 02:14:08;;;;;;;0.30;0.30;;;;;;;3.15;100.00;92097.38;2112080;28;20461;-78
2023/12/14 02:15:09;;;;;;;0.55;0.40;;;;;;;3.09;100.00;92098.97;2103097;28;20020;-79
2023/12/14 02:16:10;;;;;;;1.27;0.30;;;;;;;3.06;100.00;92093.72;2080825;28;20075;-77
2023/12/14 02:17:14;;;;;;;0.30;0.30;;;;;;;3.14;100.00;92095.16;2096621;28;20028;-80
2023/12/14 02:18:15;;;;;;;0.40;0.40;;;;;;;3.09;100.00;92100.84;2101037;28;20554;-78
2023/12/14 02:19:16;;;;;;;0.20;0.20;;;;;;;3.01;100.00;92106.19;2094786;28;20021;-79
2023/12/14 02:20:17;;;;;;;0.28;0.20;;;;;;;3.12;100.00;92094.81;2093997;28;20028;-80
2023/12/14 02:21:19;;;;;;;0.52;0.20;;;;;;;3.05;100.00;92102.78;2101569;28;20106;-80
2023/12/14 02:22:19;;;;;;;2.05;0.40;;;;;;;3.12;100.00;92098.19;2114184;28;20361;-78
2023/12/14 02:23:20;;;;;;;1.35;0.25;;;;;;;3.18;100.00;92104.53;2103236;28;20117;-78
2023/12/14 02:24:21;;;;;;;1.17;0.30;;;;;;;3.20;100.00;92101.47;2096946;28;20048;-80
2023/12/14 02:25:24;;;;;;;0.30;0.30;;;;;;;3.28;100.00;92100.25;2103174;28;20092;-78
2023/12/14 02:26:25;;;;;;;0.30;0.20;;;;;;;3.31;100.00;92102.13;2101761;28;20028;-79
2023/12/14 02:27:26;;;;;;;0.40;0.40;;;;;;;3.37;100.00;92099.78;2104676;28;20043;-80
2023/12/14 02:28:27;;;;;;;0.20;0.20;;;;;;;3.21;100.00;92106.38;2103619;28;20020;-78
2023/12/14 02:29:28;;;;;;;0.30;0.30;;;;;;;3.27;100.00;92101.41;2110103;28;20367;-79
2023/12/14 02:30:29;;;;;;;0.30;0.30;;;;;;;3.12;100.00;92100.81;2104786;28;20042;-78
2023/12/14 02:33:28;;;;;;;0.20;0.20;;;;;;;3.19;100.00;92107.91;2110764;28;20397;-79
2023/12/14 02:34:29;;;;;;;0.40;0.40;;;;;;;3.31;100.00;92104.03;2114031;28;20081;-81
2023/12/14 02:35:30;;;;;;;1.15;0.35;;;;;;;3.28;100.00;92108.94;2113944;28;20372;-78
2023/12/14 02:36:31;;;;;;;0.73;0.68;;;;;;;3.25;100.00;92111.63;2104128;28;20412;-78
2023/12/14 02:37:41;;;;;;;1.30;0.50;;;;;;;3.11;100.00;92109.88;2094578;28;20136;-78
2023/12/14 02:38:42;;;;;;;0.50;0.47;;;;;;;3.03;100.00;92108.47;2097505;28;20040;-77
2023/12/14 02:39:47;;;;;;;0.47;0.47;;;;;;;3.03;100.00;92106.56;2100835;28;20476;-79
2023/12/14 02:40:50;;;;;;;0.50;0.50;;;;;;;2.87;100.00;92101.06;2113417;28;20011;-78
2023/12/14 02:41:51;;;;;;;0.40;0.40;;;;;;;2.81;100.00;92100.00;2103881;28;20035;-80
2023/12/14 02:42:52;;;;;;;0.40;0.40;;;;;;;2.82;100.00;92104.13;2101490;28;20020;-78
2023/12/14 02:43:53;;;;;;;0.57;0.57;;;;;;;2.89;100.00;92105.94;2112115;28;20449;-78
2023/12/14 02:44:54;;;;;;;0.65;0.30;;;;;;;2.90;100.00;92102.19;2113778;28;20026;-79
2023/12/14 02:46:01;;;;;;;0.45;0.45;;;;;;;2.77;100.00;92112.47;2103035;28;20032;-78
2023/12/14 02:47:02;;;;;;;0.60;0.60;;;;;;;2.71;100.00;92112.13;2104896;28;20020;-79
2023/12/14 02:48:03;;;;;;;1.95;0.60;;;;;;;2.72;100.00;92115.50;2094389;28;20075;-78
2023/12/14 02:49:04;;;;;;;0.50;0.40;;;;;;;2.81;100.00;92112.41;2094613;28;20028;-79
2023/12/14 02:50:05;;;;;;;2.30;0.80;;;;;;;2.79;100.00;92115.47;2102714;28;20020;-78
2023/12/14 02:51:06;;;;;;;0.80;0.70;;;;;;;2.77;100.00;92109.84;2102953;28;20027;-79
2023/12/14 02:52:07;;;;;;;0.75;0.60;;;;;;;3.11;100.00;92114.41;2094151;28;20031;-79
2023/12/14 02:53:08;;;;;;;1.23;0.90;;;;;;;2.99;100.00;92118.31;2084399;28;20044;-78
2023/12/14 02:54:09;;;;;;;0.75;0.70;;;;;;;3.12;100.00;92115.91;2085126;28;20544;-78
2023/12/14 02:55:10;;;;;;;0.50;0.50;;;;;;;3.05;100.00;92115.97;2102055;28;20028;-78
2023/12/14 02:56:11;;;;;;;0.70;0.70;;;;;;;3.01;100.00;92124.69;2086227;28;20039;-77
2023/12/14 02:57:12;;;;;;;1.02;0.60;;;;;;;2.92;100.00;92124.38;2093926;28;20044;-79
2023/12/14 02:58:13;;;;;;;0.60;0.60;;;;;;;2.83;100.00;92123.34;2099875;28;20024;-79
2023/12/14 02:59:14;;;;;;;0.77;0.50;;;;;;;2.94;100.00;92131.91;2094449;28;20040;-78
2023/12/14 03:00:15;;;;;;;0.80;0.80;;;;;;;3.02;100.00;92138.63;2093182;28;20032;-77
2023/12/14 03:01:19;;;;;;;0.70;0.70;;;;;;;2.91;100.00;92138.72;2101029;28;20026;-79
2023/12/14 03:02:20;;;;;;;2.35;0.70;;;;;;;2.85;100.00;92134.25;2094911;28;20640;-78
2023/12/14 03:03:21;;;;;;;0.60;0.60;;;;;;;3.02;100.00;92135.97;2091294;28;20025;-79
2023/12/14 03:04:22;;;;;;;1.25;0.80;;;;;;;3.04;100.00;92131.06;2113301;28;20020;-78
2023/12/14 03:05:22;;;;;;;0.77;0.77;;;;;;;2.88;100.00;92131.59;2104467;28;20016;-77
2023/12/14 03:06:23;;;;;;;0.80;0.73;;;;;;;2.86;100.00;92135.78;2102950;28;20530;-78
2023/12/14 03:07:24;;;;;;;1.00;0.90;;;;;;;2.99;100.00;92128.88;2113143;28;20024;-79
2023/12/14 03:08:25;;;;;;;0.90;0.90;;;;;;;3.03;100.00;92134.88;2104801;28;20028;-77
2023/12/14 03:09:26;;;;;;;0.73;0.60;;;;;;;3.13;100.00;92131.34;2085991;28;20075;-77
2023/12/14 03:10:27;;;;;;;1.00;0.68;;;;;;;2.99;100.00;92134.88;2094821;28;20025;-79
2023/12/14 03:11:28;;;;;;;0.77;0.75;;;;;;;3.17;100.00;92133.97;2102912;28;20031;-79
2023/12/14 03:12:29;;;;;;;0.68;0.68;;;;;;;3.01;100.00;92135.22;2096727;28;20070;-78
2023/12/14 03:13:30;;;;;;;0.70;0.70;;;;;;;2.98;100.00;92133.38;2103652;28;20020;-78
2023/12/14 03:14:32;;;;;;;0.60;0.60;;;;;;;2.94;100.00;92130.03;2094314;28;20121;-79
2023/12/14 03:15:33;;;;;;;0.93;0.77;;;;;;;3.07;100.00;92135.56;2094165;28;20024;-79
2023/12/14 03:16:35;;;;;;;0.70;0.70;;;;;;;3.09;100.00;92132.53;2111969;28;20789;-77
2023/12/14 03:17:36;;;;;;;0.65;0.65;;;;;;;3.13;100.00;92141.91;2111782;28;20019;-79
2023/12/14 03:18:37;;;;;;;0.90;0.63;;;;;;;3.09;100.00;92141.22;2102537;28;20708;-80
2023/12/14 03:19:39;;;;;;;0.68;0.50;;;;;;;3.11;100.00;92144.19;2095482;28;20024;-79
2023/12/14 03:20:40;;;;;;;0.52;0.52;;;;;;;3.18;100.00;92136.22;2096380;28;20032;-79
2023/12/14 03:21:44;;;;;;;0.98;0.50;;;;;;;3.18;100.00;92138.09;2096471;28;20051;-77
2023/12/14 03:22:45;;;;;;;0.40;0.40;;;;;;;3.24;100.00;92147.81;2105220;28;20114;-79
2023/12/14 03:23:46;;;;;;;0.50;0.50;;;;;;;3.13;100.00;92149.09;2095013;28;20457;-77
2023/12/14 03:24:47;;;;;;;1.15;0.77;;;;;;;3.16;100.00;92143.00;2089746;28;20484;-77
2023/12/14 03:25:48;;;;;;;0.63;0.45;;;;;;;3.12;100.00;92144.97;2089698;28;20096;-81
2023/12/14 03:26:49;;;;;;;0.75;0.57;;;;;;;3.16;100.00;92149.06;2097886;28;20016;-79
2023/12/14 03:27:50;;;;;;;2.67;0.60;;;;;;;3.40;100.00;92155.22;2097995;28;20401;-80
2023/12/14 03:28:51;;;;;;;0.60;0.43;;;;;;;3.17;100.00;92158.47;2099953;28;20024;-79
2023/12/14 03:29:51;;;;;;;1.33;0.40;;;;;;;3.23;100.00;92161.44;2104287;28;20031;-78
2023/12/14 03:30:52;;;;;;;0.40;0.40;;;;;;;3.17;100.00;92163.00;2104666;28;20476;-78
2023/12/14 03:31:58;;;;;;;0.40;0.40;;;;;;;3.15;100.00;92167.91;2113702;28;20023;-81
2023/12/14 03:32:59;;;;;;;1.55;0.75;;;;;;;3.23;100.00;92170.09;2105800;28;20035;-78
2023/12/14 03:34:00;;;;;;;0.32;0.32;;;;;;;3.25;100.00;92167.84;2104734;28;20372;-78
2023/12/14 03:35:01;;;;;;;0.80;0.40;;;;;;;3.24;100.00;92162.94;2106141;28;20050;-78
2023/12/14 03:36:03;;;;;;;1.23;0.60;;;;;;;3.26;100.00;92165.94;2095659;28;20070;-80
2023/12/14 03:37:04;;;;;;;1.83;0.55;;;;;;;3.31;100.00;92172.69;2106385;28;20008;-79
2023/12/14 03:38:05;;;;;;;0.65;0.60;;;;;;;3.11;100.00;92167.94;2102283;28;20103;-78
2023/12/14 03:39:09;;;;;;;0.68;0.50;;;;;;;3.24;100.00;92173.50;2099569;28;20029;-80
2023/12/14 03:40:10;;;;;;;0.80;0.50;;;;;;;3.10;100.00;92173.63;2107187;28;20055;-78
2023/12/14 03:41:11;;;;;;;0.50;0.40;;;;;;;3.47;100.00;92178.94;2104418;28;20050;-81
2023/12/14 03:42:12;;;;;;;0.85;0.45;;;;;;;3.52;100.00;92169.81;2089354;28;20051;-78
2023/12/14 03:43:13;;;;;;;2.47;0.40;;;;;;;3.50;100.00;92178.13;2088308;28;20139;-79
2023/12/14 03:44:14;;;;;;;1.15;0.50;;;;;;;3.59;100.00;92184.84;2097219;28;20408;-79
2023/12/14 03:45:15;;;;;;;0.47;0.30;;;;;;;3.53;100.00;92189.81;2102099;28;20052;-78
2023/12/14 03:46:16;;;;;;;0.88;0.50;;;;;;;3.52;100.00;92183.03;2105318;28;20016;-77
2023/12/14 03:47:17;;;;;;;2.72;0.55;;;;;;;3.43;100.00;92186.16;2105102;28;20038;-79
2023/12/14 03:48:18;;;;;;;0.40;0.40;;;;;;;3.49;100.00;92186.47;2112167;28;20692;-79
2023/12/14 03:49:19;;;;;;;0.35;0.35;;;;;;;3.43;100.00;92188.03;2104053;28;20020;-79
2023/12/14 03:50:20;;;;;;;2.72;0.50;;;;;;;3.49;100.00;92187.19;2102580;28;20024;-78
2023/12/14 03:51:21;;;;;;;2.00;0.45;;;;;;;3.52;100.00;92188.31;2104055;28;20024;-77
2023/12/14 03:52:22;;;;;;;0.73;0.40;;;;;;;3.39;100.00;92192.59;2095748;28;20023;-78
2023/12/14 03:53:23;;;;;;;0.50;0.40;;;;;;;3.52;100.00;92198.88;2104329;28;20105;-79
2023/12/14 03:54:24;;;;;;;1.75;0.52;;;;;;;3.59;100.00;92205.97;2113229;28;20088;-79
2023/12/14 03:55:25;;;;;;;1.15;0.60;;;;;;;3.66;100.00;92204.00;2115276;28;20016;-79
2023/12/14 03:56:26;;;;;;;0.55;0.50;;;;;;;3.66;100.00;92206.66;2114970;28;20020;-79
2023/12/14 03:57:26;;;;;;;1.50;0.45;;;;;;;3.44;100.00;92215.94;2115176;28;20509;-78
2023/12/14 03:58:27;;;;;;;0.80;0.50;;;;;;;3.44;100.00;92210.66;2102148;28;20012;-78
2023/12/14 03:59:28;;;;;;;0.60;0.57;;;;;;;3.50;100.00;92209.09;2102159;28;20044;-79
2023/12/14 04:00:29;;;;;;;0.85;0.55;;;;;;;3.44;100.00;92211.41;2104277;28;20031;-77
2023/12/14 04:01:30;;;;;;;2.33;0.60;;;;;;;3.42;100.00;92220.84;2106312;28;20020;-79
2023/12/14 04:02:34;;;;;;;1.17;0.60;;;;;;;3.45;100.00;92215.53;2112990;28;20019;-77
2023/12/14 04:03:35;;;;;;;0.93;0.43;;;;;;;3.56;100.00;92220.75;2103403;28;20464;-78
2023/12/14 04:04:36;;;;;;;0.70;0.52;;;;;;;3.39;100.00;92219.75;2103841;28;20016;-78
2023/12/14 04:05:38;;;;;;;3.13;0.60;;;;;;;3.54;100.00;92221.13;2105731;28;20503;-78
2023/12/14 04:06:39;;;;;;;0.75;0.50;;;;;;;3.42;100.00;92224.25;2105261;28;20490;-77
2023/12/14 04:07:40;;;;;;;1.27;0.57;;;;;;;3.37;100.00;92229.97;2104356;28;20024;-79
2023/12/14 04:08:42;;;;;;;1.30;0.50;;;;;;;3.33;100.00;92223.97;2104235;28;20024;-77
2023/12/14 04:09:45;;;;;;;1.15;0.40;;;;;;;3.40;100.00;92221.25;2104187;28;20019;-79
2023/12/14 04:10:46;;;;;;;2.47;0.50;;;;;;;3.41;100.00;92227.28;2101854;28;20016;-78
2023/12/14 04:11:47;;;;;;;1.48;0.55;;;;;;;3.39;100.00;92232.22;2086349;28;20426;-77
2023/12/14 04:12:48;;;;;;;0.40;0.40;;;;;;;3.42;100.00;92234.06;2096387;28;20050;-77
2023/12/14 04:13:50;;;;;;;1.13;0.47;;;;;;;3.54;100.00;92239.59;2113414;28;20015;-79
2023/12/14 04:14:51;;;;;;;1.35;0.52;;;;;;;3.30;100.00;92237.22;2112575;28;20016;-77
2023/12/14 04:15:52;;;;;;;0.40;0.40;;;;;;;3.28;100.00;92242.88;2105794;28;20039;-78
2023/12/14 04:16:54;;;;;;;0.40;0.40;;;;;;;3.32;100.00;92245.47;2098008;28;20021;-77
2023/12/14 04:17:55;;;;;;;0.50;0.50;;;;;;;3.32;100.00;92246.22;2095449;28;20081;-77
2023/12/14 04:18:56;;;;;;;0.45;0.45;;;;;;;3.70;100.00;92240.97;2106214;28;20011;-79
2023/12/14 04:19:57;;;;;;;0.80;0.60;;;;;;;3.76;100.00;92244.69;2104228;28;20114;-78
2023/12/14 04:20:58;;;;;;;0.57;0.57;;;;;;;3.83;100.00;92238.59;2095747;28;20021;-79
2023/12/14 04:21:59;;;;;;;0.50;0.50;;;;;;;3.80;100.00;92248.03;2097279;28;20025;-78
2023/12/14 04:23:10;;;;;;;0.80;0.50;;;;;;;3.88;100.00;92246.81;2099389;28;20056;-80
2023/12/14 04:24:12;;;;;;;0.57;0.57;;;;;;;3.77;100.00;92246.91;2093735;28;20115;-78
2023/12/14 04:25:13;;;;;;;1.17;0.60;;;;;;;3.85;100.00;92244.22;2093662;28;20036;-79
2023/12/14 04:26:14;;;;;;;0.30;0.30;;;;;;;3.75;100.00;92251.88;2099337;28;20538;-78
2023/12/14 04:27:15;;;;;;;2.80;0.90;;;;;;;3.74;100.00;92249.63;2094167;28;20029;-78
2023/12/14 04:28:16;;;;;;;0.57;0.57;;;;;;;3.72;100.00;92254.53;2090895;28;20839;-77
2023/12/14 04:29:17;;;;;;;0.65;0.50;;;;;;;3.93;100.00;92246.38;2094283;28;20115;-78
2023/12/14 04:30:18;;;;;;;0.50;0.40;;;;;;;3.96;100.00;92248.25;2095646;28;20488;-78
2023/12/14 04:31:19;;;;;;;0.50;0.50;;;;;;;4.02;100.00;92248.56;2088753;28;20024;-78
2023/12/14 04:32:19;;;;;;;0.40;0.40;;;;;;;4.02;100.00;92238.72;2097653;28;20028;-78
2023/12/14 04:33:20;;;;;;;0.70;0.70;;;;;;;3.93;100.00;92240.34;2105551;28;20020;-78
2023/12/14 04:34:21;;;;;;;0.50;0.50;;;;;;;3.90;100.00;92247.16;2107478;28;20024;-79
2023/12/14 04:35:22;;;;;;;0.50;0.50;;;;;;;3.81;100.00;92256.72;2095658;28;20016;-77
2023/12/14 04:36:24;;;;;;;0.95;0.63;;;;;;;3.91;100.00;92258.53;2095041;28;20032;-77
2023/12/14 04:37:25;;;;;;;0.70;0.70;;;;;;;3.92;100.00;92260.75;2097520;28;20323;-78
2023/12/14 04:38:26;;;;;;;0.77;0.77;;;;;;;3.83;100.00;92262.38;2080779;28;20025;-78
2023/12/14 04:39:27;;;;;;;1.15;0.70;;;;;;;3.80;100.00;92266.53;2079597;28;20033;-77
2023/12/14 04:40:28;;;;;;;0.70;0.70;;;;;;;3.98;100.00;92253.88;2089192;28;20028;-79
2023/12/14 04:41:29;;;;;;;1.10;0.68;;;;;;;3.94;100.00;92257.72;2095853;28;20058;-79
2023/12/14 04:42:30;;;;;;;0.50;0.50;;;;;;;3.81;100.00;92259.38;2089214;28;20013;-80
2023/12/14 04:43:32;;;;;;;0.98;0.70;;;;;;;3.73;100.00;92263.97;2089300;28;20393;-78
2023/12/14 04:44:33;;;;;;;0.70;0.65;;;;;;;3.58;100.00;92265.25;2097158;28;20036;-78
2023/12/14 04:45:35;;;;;;;0.68;0.68;;;;;;;3.63;100.00;92262.19;2097308;28;20131;-77
2023/12/14 04:46:35;;;;;;;1.17;0.70;;;;;;;3.63;100.00;92268.22;2095314;28;20146;-79
2023/12/14 04:47:36;;;;;;;1.67;0.63;;;;;;;3.69;100.00;92264.03;2096995;28;20031;-79
2023/12/14 04:48:37;;;;;;;0.70;0.70;;;;;;;3.69;100.00;92273.84;2096937;28;20039;-78
2023/12/14 04:49:38;;;;;;;0.50;0.50;;;;;;;3.77;100.00;92272.59;2088976;28;20020;-78
2023/12/14 04:50:39;;;;;;;0.73;0.70;;;;;;;3.74;100.00;92270.78;2087210;28;20043;-78
2023/12/14 04:51:40;;;;;;;0.60;0.60;;;;;;;3.77;100.00;92276.00;2088677;28;20048;-79